sensor_id;sensor_type;location;lat;lon;timestamp;P1;durP1;ratioP1;P2;durP2;ratioP2
78875;SDS011;68253;52.506;5.486;2023-08-06T00:00:50;7.93;;;3.42;;
78875;SDS011;68253;52.506;5.486;2023-08-06T00:03:16;9.43;;;3.10;;
78875;SDS011;68253;52.506;5.486;2023-08-06T00:05:42;8.40;;;3.10;;
78875;SDS011;68253;52.506;5.486;2023-08-06T00:08:09;8.15;;;3.35;;
78875;SDS011;68253;52.506;5.486;2023-08-06T00:10:35;8.95;;;2.92;;
78875;SDS011;68253;52.506;5.486;2023-08-06T00:13:01;9.38;;;3.15;;
78875;SDS011;68253;52.506;5.486;2023-08-06T00:15:27;8.38;;;2.80;;
78875;SDS011;68253;52.506;5.486;2023-08-06T00:17:53;8.48;;;3.00;;
78875;SDS011;68253;52.506;5.486;2023-08-06T00:20:19;8.25;;;3.15;;
78875;SDS011;68253;52.506;5.486;2023-08-06T00:22:46;8.52;;;3.70;;
78875;SDS011;68253;52.506;5.486;2023-08-06T00:25:12;8.10;;;3.35;;
78875;SDS011;68253;52.506;5.486;2023-08-06T00:27:38;8.15;;;3.13;;
78875;SDS011;68253;52.506;5.486;2023-08-06T00:30:05;8.15;;;3.30;;
78875;SDS011;68253;52.506;5.486;2023-08-06T00:32:31;7.90;;;3.20;;
78875;SDS011;68253;52.506;5.486;2023-08-06T00:34:57;9.05;;;4.22;;
78875;SDS011;68253;52.506;5.486;2023-08-06T00:37:23;10.65;;;4.95;;
78875;SDS011;68253;52.506;5.486;2023-08-06T00:39:50;9.00;;;4.00;;
78875;SDS011;68253;52.506;5.486;2023-08-06T00:42:16;9.95;;;3.92;;
78875;SDS011;68253;52.506;5.486;2023-08-06T00:44:46;8.77;;;3.95;;
78875;SDS011;68253;52.506;5.486;2023-08-06T00:47:12;10.82;;;3.83;;
78875;SDS011;68253;52.506;5.486;2023-08-06T00:49:39;9.00;;;3.67;;
78875;SDS011;68253;52.506;5.486;2023-08-06T00:52:06;10.10;;;4.22;;
78875;SDS011;68253;52.506;5.486;2023-08-06T00:54:36;9.75;;;4.63;;
78875;SDS011;68253;52.506;5.486;2023-08-06T00:57:02;9.13;;;3.90;;
78875;SDS011;68253;52.506;5.486;2023-08-06T00:59:30;9.27;;;4.43;;
78875;SDS011;68253;52.506;5.486;2023-08-06T01:01:57;8.63;;;3.38;;
78875;SDS011;68253;52.506;5.486;2023-08-06T01:04:23;8.48;;;3.28;;
78875;SDS011;68253;52.506;5.486;2023-08-06T01:07:05;8.80;;;3.40;;
78875;SDS011;68253;52.506;5.486;2023-08-06T01:09:40;9.13;;;3.65;;
78875;SDS011;68253;52.506;5.486;2023-08-06T01:17:31;9.35;;;3.72;;
78875;SDS011;68253;52.506;5.486;2023-08-06T01:19:58;9.60;;;3.63;;
78875;SDS011;68253;52.506;5.486;2023-08-06T01:22:24;10.45;;;4.57;;
78875;SDS011;68253;52.506;5.486;2023-08-06T01:24:50;8.30;;;3.50;;
78875;SDS011;68253;52.506;5.486;2023-08-06T01:27:28;7.97;;;3.10;;
78875;SDS011;68253;52.506;5.486;2023-08-06T01:32:31;8.35;;;3.50;;
78875;SDS011;68253;52.506;5.486;2023-08-06T01:35:00;8.75;;;3.50;;
78875;SDS011;68253;52.506;5.486;2023-08-06T01:37:29;9.40;;;3.65;;
78875;SDS011;68253;52.506;5.486;2023-08-06T01:39:56;8.88;;;3.67;;
78875;SDS011;68253;52.506;5.486;2023-08-06T01:42:22;9.43;;;3.90;;
78875;SDS011;68253;52.506;5.486;2023-08-06T01:44:48;8.73;;;3.55;;
78875;SDS011;68253;52.506;5.486;2023-08-06T01:47:14;9.38;;;3.90;;
78875;SDS011;68253;52.506;5.486;2023-08-06T01:49:40;8.50;;;3.20;;
78875;SDS011;68253;52.506;5.486;2023-08-06T01:52:06;9.45;;;3.47;;
78875;SDS011;68253;52.506;5.486;2023-08-06T01:54:33;9.32;;;3.53;;
78875;SDS011;68253;52.506;5.486;2023-08-06T01:56:59;10.27;;;4.78;;
78875;SDS011;68253;52.506;5.486;2023-08-06T01:59:25;9.63;;;3.63;;
78875;SDS011;68253;52.506;5.486;2023-08-06T02:01:51;8.32;;;3.30;;
78875;SDS011;68253;52.506;5.486;2023-08-06T02:04:17;8.10;;;3.15;;
78875;SDS011;68253;52.506;5.486;2023-08-06T02:06:44;9.48;;;3.45;;
78875;SDS011;68253;52.506;5.486;2023-08-06T02:09:10;7.95;;;3.33;;
78875;SDS011;68253;52.506;5.486;2023-08-06T02:11:36;8.15;;;3.17;;
78875;SDS011;68253;52.506;5.486;2023-08-06T02:14:02;8.30;;;3.33;;
78875;SDS011;68253;52.506;5.486;2023-08-06T02:16:29;8.95;;;3.67;;
78875;SDS011;68253;52.506;5.486;2023-08-06T02:18:55;9.10;;;3.38;;
78875;SDS011;68253;52.506;5.486;2023-08-06T02:21:21;8.68;;;3.38;;
78875;SDS011;68253;52.506;5.486;2023-08-06T02:23:47;8.32;;;3.08;;
78875;SDS011;68253;52.506;5.486;2023-08-06T02:26:13;8.85;;;3.35;;
78875;SDS011;68253;52.506;5.486;2023-08-06T02:28:39;8.95;;;3.85;;
78875;SDS011;68253;52.506;5.486;2023-08-06T02:31:05;8.98;;;3.10;;
78875;SDS011;68253;52.506;5.486;2023-08-06T02:33:32;9.15;;;3.50;;
78875;SDS011;68253;52.506;5.486;2023-08-06T02:35:59;9.52;;;3.05;;
78875;SDS011;68253;52.506;5.486;2023-08-06T02:38:26;9.80;;;3.60;;
78875;SDS011;68253;52.506;5.486;2023-08-06T02:40:53;9.15;;;3.47;;
78875;SDS011;68253;52.506;5.486;2023-08-06T02:43:19;9.50;;;3.88;;
78875;SDS011;68253;52.506;5.486;2023-08-06T02:45:45;9.15;;;3.92;;
78875;SDS011;68253;52.506;5.486;2023-08-06T02:48:11;8.70;;;3.60;;
78875;SDS011;68253;52.506;5.486;2023-08-06T02:50:40;8.80;;;3.70;;
78875;SDS011;68253;52.506;5.486;2023-08-06T02:53:07;9.93;;;4.20;;
78875;SDS011;68253;52.506;5.486;2023-08-06T02:55:35;10.77;;;4.22;;
78875;SDS011;68253;52.506;5.486;2023-08-06T02:58:06;8.93;;;3.53;;
78875;SDS011;68253;52.506;5.486;2023-08-06T03:00:36;8.40;;;3.20;;
78875;SDS011;68253;52.506;5.486;2023-08-06T03:03:04;9.38;;;3.63;;
78875;SDS011;68253;52.506;5.486;2023-08-06T03:05:56;8.60;;;3.90;;
78875;SDS011;68253;52.506;5.486;2023-08-06T03:08:33;8.82;;;3.30;;
78875;SDS011;68253;52.506;5.486;2023-08-06T03:10:59;9.15;;;3.50;;
78875;SDS011;68253;52.506;5.486;2023-08-06T03:13:26;9.45;;;3.50;;
78875;SDS011;68253;52.506;5.486;2023-08-06T03:18:27;8.93;;;3.90;;
78875;SDS011;68253;52.506;5.486;2023-08-06T03:20:55;8.50;;;3.53;;
78875;SDS011;68253;52.506;5.486;2023-08-06T03:23:22;8.50;;;3.70;;
78875;SDS011;68253;52.506;5.486;2023-08-06T03:25:48;11.77;;;6.05;;
78875;SDS011;68253;52.506;5.486;2023-08-06T03:28:16;9.32;;;3.85;;
78875;SDS011;68253;52.506;5.486;2023-08-06T03:30:43;8.30;;;3.40;;
78875;SDS011;68253;52.506;5.486;2023-08-06T03:33:11;9.57;;;4.55;;
78875;SDS011;68253;52.506;5.486;2023-08-06T03:35:37;9.25;;;3.63;;
78875;SDS011;68253;52.506;5.486;2023-08-06T03:38:04;8.00;;;3.13;;
78875;SDS011;68253;52.506;5.486;2023-08-06T03:40:30;9.88;;;4.38;;
78875;SDS011;68253;52.506;5.486;2023-08-06T03:42:57;9.10;;;4.07;;
78875;SDS011;68253;52.506;5.486;2023-08-06T03:45:24;8.60;;;3.40;;
78875;SDS011;68253;52.506;5.486;2023-08-06T03:47:50;9.27;;;3.53;;
78875;SDS011;68253;52.506;5.486;2023-08-06T03:50:17;8.95;;;4.05;;
78875;SDS011;68253;52.506;5.486;2023-08-06T03:52:43;9.27;;;3.83;;
78875;SDS011;68253;52.506;5.486;2023-08-06T03:55:10;10.68;;;3.35;;
78875;SDS011;68253;52.506;5.486;2023-08-06T03:57:37;7.90;;;3.05;;
78875;SDS011;68253;52.506;5.486;2023-08-06T04:00:03;8.18;;;3.10;;
78875;SDS011;68253;52.506;5.486;2023-08-06T04:02:40;9.48;;;3.33;;
78875;SDS011;68253;52.506;5.486;2023-08-06T04:05:07;9.90;;;4.00;;
78875;SDS011;68253;52.506;5.486;2023-08-06T04:07:34;7.55;;;2.88;;
78875;SDS011;68253;52.506;5.486;2023-08-06T04:10:01;8.32;;;3.50;;
78875;SDS011;68253;52.506;5.486;2023-08-06T04:12:29;8.55;;;3.25;;
78875;SDS011;68253;52.506;5.486;2023-08-06T04:17:24;8.00;;;2.95;;
78875;SDS011;68253;52.506;5.486;2023-08-06T04:19:50;8.20;;;3.15;;
78875;SDS011;68253;52.506;5.486;2023-08-06T04:22:18;8.77;;;3.40;;
78875;SDS011;68253;52.506;5.486;2023-08-06T04:24:45;8.45;;;3.67;;
78875;SDS011;68253;52.506;5.486;2023-08-06T04:27:11;7.80;;;2.85;;
78875;SDS011;68253;52.506;5.486;2023-08-06T04:29:38;8.10;;;3.17;;
78875;SDS011;68253;52.506;5.486;2023-08-06T04:32:07;7.60;;;3.25;;
78875;SDS011;68253;52.506;5.486;2023-08-06T04:34:35;8.88;;;3.80;;
78875;SDS011;68253;52.506;5.486;2023-08-06T04:37:03;9.18;;;3.50;;
78875;SDS011;68253;52.506;5.486;2023-08-06T04:39:30;9.15;;;3.60;;
78875;SDS011;68253;52.506;5.486;2023-08-06T04:41:56;8.30;;;2.97;;
78875;SDS011;68253;52.506;5.486;2023-08-06T04:44:23;8.73;;;3.50;;
78875;SDS011;68253;52.506;5.486;2023-08-06T04:46:50;7.82;;;3.17;;
78875;SDS011;68253;52.506;5.486;2023-08-06T04:49:16;7.88;;;3.00;;
78875;SDS011;68253;52.506;5.486;2023-08-06T04:51:43;8.38;;;2.85;;
78875;SDS011;68253;52.506;5.486;2023-08-06T04:54:09;8.95;;;3.85;;
78875;SDS011;68253;52.506;5.486;2023-08-06T04:56:35;8.20;;;3.10;;
78875;SDS011;68253;52.506;5.486;2023-08-06T04:59:01;7.95;;;3.20;;
78875;SDS011;68253;52.506;5.486;2023-08-06T05:01:28;9.20;;;3.75;;
78875;SDS011;68253;52.506;5.486;2023-08-06T05:03:54;8.93;;;4.00;;
78875;SDS011;68253;52.506;5.486;2023-08-06T05:06:20;8.23;;;3.50;;
78875;SDS011;68253;52.506;5.486;2023-08-06T05:08:46;7.88;;;3.38;;
78875;SDS011;68253;52.506;5.486;2023-08-06T05:11:12;9.40;;;3.28;;
78875;SDS011;68253;52.506;5.486;2023-08-06T05:13:39;8.07;;;3.22;;
78875;SDS011;68253;52.506;5.486;2023-08-06T05:16:05;8.27;;;2.90;;
78875;SDS011;68253;52.506;5.486;2023-08-06T05:18:31;8.30;;;3.33;;
78875;SDS011;68253;52.506;5.486;2023-08-06T05:20:57;9.32;;;3.65;;
78875;SDS011;68253;52.506;5.486;2023-08-06T05:23:23;9.63;;;4.40;;
78875;SDS011;68253;52.506;5.486;2023-08-06T05:25:49;9.75;;;3.55;;
78875;SDS011;68253;52.506;5.486;2023-08-06T05:28:15;8.73;;;3.60;;
78875;SDS011;68253;52.506;5.486;2023-08-06T05:30:41;9.48;;;3.70;;
78875;SDS011;68253;52.506;5.486;2023-08-06T05:33:08;10.15;;;4.10;;
78875;SDS011;68253;52.506;5.486;2023-08-06T05:35:34;9.70;;;3.50;;
78875;SDS011;68253;52.506;5.486;2023-08-06T05:38:00;9.23;;;3.50;;
78875;SDS011;68253;52.506;5.486;2023-08-06T05:40:26;9.45;;;3.83;;
78875;SDS011;68253;52.506;5.486;2023-08-06T05:42:55;10.00;;;4.22;;
78875;SDS011;68253;52.506;5.486;2023-08-06T05:47:48;9.05;;;3.85;;
78875;SDS011;68253;52.506;5.486;2023-08-06T05:50:14;8.70;;;3.63;;
78875;SDS011;68253;52.506;5.486;2023-08-06T05:52:40;8.32;;;3.53;;
78875;SDS011;68253;52.506;5.486;2023-08-06T05:55:07;9.50;;;4.35;;
78875;SDS011;68253;52.506;5.486;2023-08-06T05:57:33;8.77;;;3.47;;
78875;SDS011;68253;52.506;5.486;2023-08-06T06:00:00;8.65;;;3.80;;
78875;SDS011;68253;52.506;5.486;2023-08-06T06:02:26;10.32;;;4.55;;
78875;SDS011;68253;52.506;5.486;2023-08-06T06:04:52;9.23;;;3.67;;
78875;SDS011;68253;52.506;5.486;2023-08-06T06:07:19;10.32;;;3.85;;
78875;SDS011;68253;52.506;5.486;2023-08-06T06:09:45;10.82;;;4.05;;
78875;SDS011;68253;52.506;5.486;2023-08-06T06:12:11;9.60;;;3.83;;
78875;SDS011;68253;52.506;5.486;2023-08-06T06:14:37;10.45;;;3.92;;
78875;SDS011;68253;52.506;5.486;2023-08-06T06:17:03;8.95;;;3.85;;
78875;SDS011;68253;52.506;5.486;2023-08-06T06:19:29;9.38;;;4.50;;
78875;SDS011;68253;52.506;5.486;2023-08-06T06:21:55;9.07;;;3.97;;
78875;SDS011;68253;52.506;5.486;2023-08-06T06:24:23;9.65;;;4.00;;
78875;SDS011;68253;52.506;5.486;2023-08-06T06:26:49;10.10;;;4.65;;
78875;SDS011;68253;52.506;5.486;2023-08-06T06:29:15;10.27;;;4.35;;
78875;SDS011;68253;52.506;5.486;2023-08-06T06:31:41;9.73;;;4.18;;
78875;SDS011;68253;52.506;5.486;2023-08-06T06:34:07;9.95;;;4.32;;
78875;SDS011;68253;52.506;5.486;2023-08-06T06:36:33;9.15;;;3.95;;
78875;SDS011;68253;52.506;5.486;2023-08-06T06:39:00;9.88;;;4.57;;
78875;SDS011;68253;52.506;5.486;2023-08-06T06:41:26;10.02;;;4.40;;
78875;SDS011;68253;52.506;5.486;2023-08-06T06:43:52;10.50;;;4.60;;
78875;SDS011;68253;52.506;5.486;2023-08-06T06:46:18;9.45;;;4.25;;
78875;SDS011;68253;52.506;5.486;2023-08-06T06:48:44;9.70;;;4.78;;
78875;SDS011;68253;52.506;5.486;2023-08-06T06:51:10;10.23;;;4.97;;
78875;SDS011;68253;52.506;5.486;2023-08-06T06:53:36;10.02;;;4.78;;
78875;SDS011;68253;52.506;5.486;2023-08-06T06:56:03;11.65;;;5.72;;
78875;SDS011;68253;52.506;5.486;2023-08-06T06:58:30;11.38;;;5.40;;
78875;SDS011;68253;52.506;5.486;2023-08-06T07:00:57;9.98;;;4.72;;
78875;SDS011;68253;52.506;5.486;2023-08-06T07:03:23;11.45;;;5.43;;
78875;SDS011;68253;52.506;5.486;2023-08-06T07:05:49;10.50;;;5.60;;
78875;SDS011;68253;52.506;5.486;2023-08-06T07:08:16;10.30;;;4.63;;
78875;SDS011;68253;52.506;5.486;2023-08-06T07:10:42;11.32;;;4.90;;
78875;SDS011;68253;52.506;5.486;2023-08-06T07:13:09;11.73;;;5.57;;
78875;SDS011;68253;52.506;5.486;2023-08-06T07:15:35;10.90;;;5.40;;
78875;SDS011;68253;52.506;5.486;2023-08-06T07:18:01;13.07;;;5.88;;
78875;SDS011;68253;52.506;5.486;2023-08-06T07:20:28;11.55;;;5.28;;
78875;SDS011;68253;52.506;5.486;2023-08-06T07:22:58;10.60;;;4.63;;
78875;SDS011;68253;52.506;5.486;2023-08-06T07:25:24;11.48;;;5.45;;
78875;SDS011;68253;52.506;5.486;2023-08-06T07:27:51;10.45;;;4.93;;
78875;SDS011;68253;52.506;5.486;2023-08-06T07:30:17;10.32;;;4.57;;
78875;SDS011;68253;52.506;5.486;2023-08-06T07:32:43;11.15;;;4.97;;
78875;SDS011;68253;52.506;5.486;2023-08-06T07:35:09;11.85;;;5.82;;
78875;SDS011;68253;52.506;5.486;2023-08-06T07:37:38;13.20;;;5.65;;
78875;SDS011;68253;52.506;5.486;2023-08-06T07:40:05;11.05;;;5.60;;
78875;SDS011;68253;52.506;5.486;2023-08-06T07:42:31;12.15;;;7.03;;
78875;SDS011;68253;52.506;5.486;2023-08-06T07:44:58;11.75;;;6.45;;
78875;SDS011;68253;52.506;5.486;2023-08-06T07:47:24;11.38;;;5.93;;
78875;SDS011;68253;52.506;5.486;2023-08-06T07:49:51;11.02;;;5.35;;
78875;SDS011;68253;52.506;5.486;2023-08-06T07:52:18;14.48;;;7.75;;
78875;SDS011;68253;52.506;5.486;2023-08-06T07:54:44;11.07;;;5.38;;
78875;SDS011;68253;52.506;5.486;2023-08-06T07:57:10;11.63;;;5.72;;
78875;SDS011;68253;52.506;5.486;2023-08-06T07:59:36;11.60;;;5.68;;
78875;SDS011;68253;52.506;5.486;2023-08-06T08:02:02;11.27;;;5.28;;
78875;SDS011;68253;52.506;5.486;2023-08-06T08:04:29;11.10;;;5.32;;
78875;SDS011;68253;52.506;5.486;2023-08-06T08:06:55;10.65;;;5.75;;
78875;SDS011;68253;52.506;5.486;2023-08-06T08:09:21;10.63;;;5.13;;
78875;SDS011;68253;52.506;5.486;2023-08-06T08:11:48;14.63;;;8.20;;
78875;SDS011;68253;52.506;5.486;2023-08-06T08:14:14;11.10;;;5.32;;
78875;SDS011;68253;52.506;5.486;2023-08-06T08:16:40;12.45;;;5.78;;
78875;SDS011;68253;52.506;5.486;2023-08-06T08:19:06;10.90;;;5.63;;
78875;SDS011;68253;52.506;5.486;2023-08-06T08:21:32;10.60;;;5.05;;
78875;SDS011;68253;52.506;5.486;2023-08-06T08:23:59;13.77;;;5.97;;
78875;SDS011;68253;52.506;5.486;2023-08-06T08:26:26;11.98;;;5.82;;
78875;SDS011;68253;52.506;5.486;2023-08-06T08:28:53;10.27;;;5.30;;
78875;SDS011;68253;52.506;5.486;2023-08-06T08:31:19;9.85;;;4.95;;
78875;SDS011;68253;52.506;5.486;2023-08-06T08:33:45;13.43;;;6.78;;
78875;SDS011;68253;52.506;5.486;2023-08-06T08:36:11;13.93;;;7.25;;
78875;SDS011;68253;52.506;5.486;2023-08-06T08:38:38;11.95;;;5.30;;
78875;SDS011;68253;52.506;5.486;2023-08-06T08:41:04;9.75;;;4.95;;
78875;SDS011;68253;52.506;5.486;2023-08-06T08:43:30;10.10;;;5.32;;
78875;SDS011;68253;52.506;5.486;2023-08-06T08:45:57;10.88;;;5.15;;
78875;SDS011;68253;52.506;5.486;2023-08-06T08:48:24;9.50;;;4.85;;
78875;SDS011;68253;52.506;5.486;2023-08-06T08:50:52;10.23;;;5.10;;
78875;SDS011;68253;52.506;5.486;2023-08-06T08:53:18;12.75;;;6.55;;
78875;SDS011;68253;52.506;5.486;2023-08-06T08:55:47;11.02;;;5.30;;
78875;SDS011;68253;52.506;5.486;2023-08-06T08:58:15;10.57;;;5.43;;
78875;SDS011;68253;52.506;5.486;2023-08-06T09:00:41;15.40;;;7.40;;
78875;SDS011;68253;52.506;5.486;2023-08-06T09:03:08;9.95;;;4.68;;
78875;SDS011;68253;52.506;5.486;2023-08-06T09:05:34;9.38;;;4.60;;
78875;SDS011;68253;52.506;5.486;2023-08-06T09:08:02;14.15;;;8.80;;
78875;SDS011;68253;52.506;5.486;2023-08-06T09:10:29;10.25;;;5.10;;
78875;SDS011;68253;52.506;5.486;2023-08-06T09:12:56;10.93;;;6.05;;
78875;SDS011;68253;52.506;5.486;2023-08-06T09:15:26;9.07;;;4.63;;
78875;SDS011;68253;52.506;5.486;2023-08-06T09:17:53;10.52;;;5.35;;
78875;SDS011;68253;52.506;5.486;2023-08-06T09:20:19;10.50;;;5.40;;
78875;SDS011;68253;52.506;5.486;2023-08-06T09:22:46;11.93;;;7.28;;
78875;SDS011;68253;52.506;5.486;2023-08-06T09:27:50;9.57;;;4.43;;
78875;SDS011;68253;52.506;5.486;2023-08-06T09:30:30;11.20;;;5.35;;
78875;SDS011;68253;52.506;5.486;2023-08-06T09:35:25;10.85;;;5.28;;
78875;SDS011;68253;52.506;5.486;2023-08-06T09:37:54;10.52;;;4.72;;
78875;SDS011;68253;52.506;5.486;2023-08-06T09:42:57;10.93;;;5.75;;
78875;SDS011;68253;52.506;5.486;2023-08-06T09:45:30;9.93;;;5.10;;
78875;SDS011;68253;52.506;5.486;2023-08-06T09:48:02;9.52;;;4.50;;
78875;SDS011;68253;52.506;5.486;2023-08-06T09:50:30;9.52;;;4.50;;
78875;SDS011;68253;52.506;5.486;2023-08-06T09:52:58;11.05;;;5.22;;
78875;SDS011;68253;52.506;5.486;2023-08-06T09:55:28;10.48;;;5.28;;
78875;SDS011;68253;52.506;5.486;2023-08-06T09:57:54;10.10;;;5.45;;
78875;SDS011;68253;52.506;5.486;2023-08-06T10:00:21;11.80;;;6.43;;
78875;SDS011;68253;52.506;5.486;2023-08-06T10:02:48;11.80;;;6.68;;
78875;SDS011;68253;52.506;5.486;2023-08-06T10:05:16;10.43;;;5.30;;
78875;SDS011;68253;52.506;5.486;2023-08-06T10:07:43;8.48;;;3.83;;
78875;SDS011;68253;52.506;5.486;2023-08-06T10:10:10;11.23;;;4.95;;
78875;SDS011;68253;52.506;5.486;2023-08-06T10:12:42;11.75;;;6.55;;
78875;SDS011;68253;52.506;5.486;2023-08-06T10:15:15;9.40;;;4.55;;
78875;SDS011;68253;52.506;5.486;2023-08-06T10:17:45;10.13;;;5.18;;
78875;SDS011;68253;52.506;5.486;2023-08-06T10:20:14;11.27;;;6.07;;
78875;SDS011;68253;52.506;5.486;2023-08-06T10:22:43;9.68;;;4.25;;
78875;SDS011;68253;52.506;5.486;2023-08-06T10:25:10;10.63;;;5.03;;
78875;SDS011;68253;52.506;5.486;2023-08-06T10:27:52;9.73;;;4.40;;
78875;SDS011;68253;52.506;5.486;2023-08-06T10:30:23;10.77;;;5.22;;
78875;SDS011;68253;52.506;5.486;2023-08-06T10:32:51;8.05;;;3.22;;
78875;SDS011;68253;52.506;5.486;2023-08-06T10:38:05;6.20;;;1.60;;
78875;SDS011;68253;52.506;5.486;2023-08-06T10:40:33;6.28;;;1.50;;
78875;SDS011;68253;52.506;5.486;2023-08-06T10:43:00;4.47;;;1.52;;
78875;SDS011;68253;52.506;5.486;2023-08-06T10:45:27;4.22;;;1.02;;
78875;SDS011;68253;52.506;5.486;2023-08-06T10:47:56;3.28;;;1.17;;
78875;SDS011;68253;52.506;5.486;2023-08-06T10:50:23;3.90;;;1.15;;
78875;SDS011;68253;52.506;5.486;2023-08-06T10:52:50;4.10;;;1.20;;
78875;SDS011;68253;52.506;5.486;2023-08-06T10:55:27;5.95;;;1.77;;
78875;SDS011;68253;52.506;5.486;2023-08-06T10:57:55;5.35;;;1.52;;
78875;SDS011;68253;52.506;5.486;2023-08-06T11:00:22;4.68;;;1.10;;
78875;SDS011;68253;52.506;5.486;2023-08-06T11:02:49;6.32;;;1.52;;
78875;SDS011;68253;52.506;5.486;2023-08-06T11:05:17;6.55;;;1.80;;
78875;SDS011;68253;52.506;5.486;2023-08-06T11:07:43;4.80;;;1.33;;
78875;SDS011;68253;52.506;5.486;2023-08-06T11:10:11;5.15;;;1.63;;
78875;SDS011;68253;52.506;5.486;2023-08-06T11:12:38;5.05;;;1.40;;
78875;SDS011;68253;52.506;5.486;2023-08-06T11:15:05;3.28;;;0.77;;
78875;SDS011;68253;52.506;5.486;2023-08-06T11:17:32;2.70;;;0.98;;
78875;SDS011;68253;52.506;5.486;2023-08-06T11:20:00;4.13;;;1.15;;
78875;SDS011;68253;52.506;5.486;2023-08-06T11:22:27;5.53;;;1.10;;
78875;SDS011;68253;52.506;5.486;2023-08-06T11:24:53;4.47;;;1.30;;
78875;SDS011;68253;52.506;5.486;2023-08-06T11:27:20;5.38;;;1.25;;
78875;SDS011;68253;52.506;5.486;2023-08-06T11:29:46;4.32;;;1.27;;
78875;SDS011;68253;52.506;5.486;2023-08-06T11:32:13;3.05;;;1.08;;
78875;SDS011;68253;52.506;5.486;2023-08-06T11:34:39;4.82;;;1.35;;
78875;SDS011;68253;52.506;5.486;2023-08-06T11:37:07;2.78;;;0.98;;
78875;SDS011;68253;52.506;5.486;2023-08-06T11:39:33;5.07;;;1.13;;
78875;SDS011;68253;52.506;5.486;2023-08-06T11:42:02;4.50;;;1.25;;
78875;SDS011;68253;52.506;5.486;2023-08-06T11:44:38;3.42;;;1.00;;
78875;SDS011;68253;52.506;5.486;2023-08-06T11:52:11;3.20;;;1.00;;
78875;SDS011;68253;52.506;5.486;2023-08-06T11:54:38;3.70;;;1.10;;
78875;SDS011;68253;52.506;5.486;2023-08-06T11:57:05;2.85;;;1.00;;
78875;SDS011;68253;52.506;5.486;2023-08-06T11:59:32;5.05;;;1.05;;
78875;SDS011;68253;52.506;5.486;2023-08-06T12:02:02;2.70;;;1.00;;
78875;SDS011;68253;52.506;5.486;2023-08-06T12:07:31;3.83;;;1.17;;
78875;SDS011;68253;52.506;5.486;2023-08-06T12:09:58;3.65;;;1.20;;
78875;SDS011;68253;52.506;5.486;2023-08-06T12:12:25;5.03;;;1.30;;
78875;SDS011;68253;52.506;5.486;2023-08-06T12:14:51;3.80;;;1.13;;
78875;SDS011;68253;52.506;5.486;2023-08-06T12:17:17;5.55;;;1.23;;
78875;SDS011;68253;52.506;5.486;2023-08-06T12:19:44;6.35;;;1.48;;
78875;SDS011;68253;52.506;5.486;2023-08-06T12:22:12;3.53;;;1.15;;
78875;SDS011;68253;52.506;5.486;2023-08-06T12:24:40;4.65;;;1.20;;
78875;SDS011;68253;52.506;5.486;2023-08-06T12:27:07;3.20;;;1.08;;
78875;SDS011;68253;52.506;5.486;2023-08-06T12:29:33;5.22;;;1.20;;
78875;SDS011;68253;52.506;5.486;2023-08-06T12:31:59;5.18;;;1.63;;
78875;SDS011;68253;52.506;5.486;2023-08-06T12:34:26;3.30;;;0.93;;
78875;SDS011;68253;52.506;5.486;2023-08-06T12:36:52;7.03;;;1.70;;
78875;SDS011;68253;52.506;5.486;2023-08-06T12:39:18;4.35;;;1.15;;
78875;SDS011;68253;52.506;5.486;2023-08-06T12:41:44;5.13;;;1.60;;
78875;SDS011;68253;52.506;5.486;2023-08-06T12:44:11;5.10;;;1.20;;
78875;SDS011;68253;52.506;5.486;2023-08-06T12:46:38;4.97;;;1.30;;
78875;SDS011;68253;52.506;5.486;2023-08-06T12:49:04;4.82;;;1.50;;
78875;SDS011;68253;52.506;5.486;2023-08-06T12:51:30;5.53;;;1.33;;
78875;SDS011;68253;52.506;5.486;2023-08-06T12:53:56;3.00;;;1.08;;
78875;SDS011;68253;52.506;5.486;2023-08-06T12:56:22;5.65;;;1.50;;
78875;SDS011;68253;52.506;5.486;2023-08-06T12:58:49;5.38;;;1.42;;
78875;SDS011;68253;52.506;5.486;2023-08-06T13:01:15;6.95;;;1.58;;
78875;SDS011;68253;52.506;5.486;2023-08-06T13:03:41;5.43;;;1.45;;
78875;SDS011;68253;52.506;5.486;2023-08-06T13:06:07;3.28;;;1.08;;
78875;SDS011;68253;52.506;5.486;2023-08-06T13:08:35;3.70;;;1.23;;
78875;SDS011;68253;52.506;5.486;2023-08-06T13:11:01;3.90;;;1.13;;
78875;SDS011;68253;52.506;5.486;2023-08-06T13:13:27;3.90;;;1.13;;
78875;SDS011;68253;52.506;5.486;2023-08-06T13:15:54;5.85;;;1.30;;
78875;SDS011;68253;52.506;5.486;2023-08-06T13:18:20;2.88;;;1.00;;
78875;SDS011;68253;52.506;5.486;2023-08-06T13:20:46;5.00;;;1.30;;
78875;SDS011;68253;52.506;5.486;2023-08-06T13:23:15;4.63;;;1.00;;
78875;SDS011;68253;52.506;5.486;2023-08-06T13:25:42;4.80;;;1.30;;
78875;SDS011;68253;52.506;5.486;2023-08-06T13:28:08;4.55;;;1.13;;
78875;SDS011;68253;52.506;5.486;2023-08-06T13:30:34;3.90;;;1.08;;
78875;SDS011;68253;52.506;5.486;2023-08-06T13:33:07;3.28;;;0.98;;
78875;SDS011;68253;52.506;5.486;2023-08-06T13:35:34;3.50;;;1.08;;
78875;SDS011;68253;52.506;5.486;2023-08-06T13:38:00;3.78;;;1.10;;
78875;SDS011;68253;52.506;5.486;2023-08-06T13:40:30;4.60;;;1.20;;
78875;SDS011;68253;52.506;5.486;2023-08-06T13:42:58;3.67;;;1.20;;
78875;SDS011;68253;52.506;5.486;2023-08-06T13:45:24;4.20;;;1.20;;
78875;SDS011;68253;52.506;5.486;2023-08-06T13:47:50;4.25;;;1.45;;
78875;SDS011;68253;52.506;5.486;2023-08-06T13:50:16;3.95;;;1.27;;
78875;SDS011;68253;52.506;5.486;2023-08-06T13:52:42;3.55;;;1.20;;
78875;SDS011;68253;52.506;5.486;2023-08-06T13:55:09;3.67;;;1.20;;
78875;SDS011;68253;52.506;5.486;2023-08-06T13:57:35;5.53;;;1.40;;
78875;SDS011;68253;52.506;5.486;2023-08-06T14:00:01;5.78;;;1.38;;
78875;SDS011;68253;52.506;5.486;2023-08-06T14:02:38;4.47;;;1.10;;
78875;SDS011;68253;52.506;5.486;2023-08-06T14:05:04;3.72;;;1.00;;
78875;SDS011;68253;52.506;5.486;2023-08-06T14:07:31;3.85;;;1.05;;
78875;SDS011;68253;52.506;5.486;2023-08-06T14:09:57;4.53;;;1.20;;
78875;SDS011;68253;52.506;5.486;2023-08-06T14:12:23;4.22;;;1.10;;
78875;SDS011;68253;52.506;5.486;2023-08-06T14:14:50;5.22;;;1.40;;
78875;SDS011;68253;52.506;5.486;2023-08-06T14:17:16;5.47;;;1.48;;
78875;SDS011;68253;52.506;5.486;2023-08-06T14:19:42;6.35;;;1.40;;
78875;SDS011;68253;52.506;5.486;2023-08-06T14:22:08;6.75;;;1.50;;
78875;SDS011;68253;52.506;5.486;2023-08-06T14:24:34;3.75;;;1.10;;
78875;SDS011;68253;52.506;5.486;2023-08-06T14:27:00;5.95;;;1.60;;
78875;SDS011;68253;52.506;5.486;2023-08-06T14:29:29;3.78;;;1.05;;
78875;SDS011;68253;52.506;5.486;2023-08-06T14:31:55;5.00;;;1.27;;
78875;SDS011;68253;52.506;5.486;2023-08-06T14:34:21;4.95;;;1.30;;
78875;SDS011;68253;52.506;5.486;2023-08-06T14:36:47;3.90;;;1.05;;
78875;SDS011;68253;52.506;5.486;2023-08-06T14:39:14;3.88;;;1.00;;
78875;SDS011;68253;52.506;5.486;2023-08-06T14:41:40;5.22;;;1.10;;
78875;SDS011;68253;52.506;5.486;2023-08-06T14:44:06;3.70;;;1.10;;
78875;SDS011;68253;52.506;5.486;2023-08-06T14:46:33;2.97;;;1.02;;
78875;SDS011;68253;52.506;5.486;2023-08-06T14:48:59;3.22;;;1.00;;
78875;SDS011;68253;52.506;5.486;2023-08-06T14:51:25;5.28;;;1.45;;
78875;SDS011;68253;52.506;5.486;2023-08-06T14:53:51;4.38;;;1.10;;
78875;SDS011;68253;52.506;5.486;2023-08-06T14:56:17;4.15;;;1.38;;
78875;SDS011;68253;52.506;5.486;2023-08-06T14:58:43;7.22;;;1.58;;
78875;SDS011;68253;52.506;5.486;2023-08-06T15:01:10;7.57;;;1.10;;
78875;SDS011;68253;52.506;5.486;2023-08-06T15:03:36;8.45;;;1.00;;
78875;SDS011;68253;52.506;5.486;2023-08-06T15:06:02;7.75;;;0.93;;
78875;SDS011;68253;52.506;5.486;2023-08-06T15:08:28;6.07;;;0.60;;
78875;SDS011;68253;52.506;5.486;2023-08-06T15:10:54;5.30;;;0.70;;
78875;SDS011;68253;52.506;5.486;2023-08-06T15:13:20;8.88;;;1.15;;
78875;SDS011;68253;52.506;5.486;2023-08-06T15:15:47;5.63;;;1.00;;
78875;SDS011;68253;52.506;5.486;2023-08-06T15:18:14;6.50;;;0.90;;